createdAt,value
2022-09-13T00:00:03.199Z,0.00
2022-09-13T00:01:03.208Z,0.00
2022-09-13T00:02:03.168Z,0.00
2022-09-13T00:03:03.094Z,0.00
2022-09-13T00:04:03.049Z,0.00
2022-09-13T00:05:03.030Z,0.00
2022-09-13T00:06:02.976Z,0.00
2022-09-13T00:07:02.936Z,0.00
2022-09-13T00:08:02.902Z,0.00
2022-09-13T00:09:02.867Z,0.00
2022-09-13T00:10:02.827Z,0.00
2022-09-13T00:11:02.800Z,0.00
2022-09-13T00:12:02.755Z,0.00
2022-09-13T00:13:02.726Z,0.00
2022-09-13T00:14:02.677Z,0.00
2022-09-13T00:15:02.645Z,0.00
2022-09-13T00:16:02.672Z,0.00
2022-09-13T00:17:02.565Z,0.00
2022-09-13T00:18:02.528Z,0.00
2022-09-13T00:19:02.626Z,0.00
2022-09-13T00:20:02.467Z,0.00
2022-09-13T00:21:02.418Z,0.00
2022-09-13T00:22:02.384Z,0.00
2022-09-13T00:23:02.342Z,0.00
2022-09-13T00:24:02.303Z,0.00
2022-09-13T00:25:02.270Z,0.00
2022-09-13T00:26:02.242Z,0.00
2022-09-13T00:27:02.193Z,0.00
2022-09-13T00:28:02.157Z,0.00
2022-09-13T00:29:02.118Z,0.00
2022-09-13T00:30:02.102Z,0.00
2022-09-13T00:31:02.045Z,0.00
2022-09-13T00:32:02.092Z,0.00
2022-09-13T00:33:01.969Z,0.00
2022-09-13T00:34:01.933Z,0.00
2022-09-13T00:35:01.898Z,0.00
2022-09-13T00:36:01.856Z,0.00
2022-09-13T00:37:01.821Z,0.00
2022-09-13T00:38:01.795Z,0.00
2022-09-13T00:39:01.749Z,0.00
2022-09-13T00:40:01.763Z,0.00
2022-09-13T00:41:01.672Z,0.00
2022-09-13T00:42:01.645Z,0.00
2022-09-13T00:43:01.608Z,0.00
2022-09-13T00:44:01.573Z,0.00
2022-09-13T00:45:01.527Z,0.00
2022-09-13T00:46:01.560Z,0.00
2022-09-13T00:47:01.450Z,0.00
2022-09-13T00:48:01.412Z,0.00
2022-09-13T00:49:01.375Z,0.00
2022-09-13T00:50:01.351Z,0.00
2022-09-13T00:51:01.314Z,0.00
2022-09-13T00:52:01.261Z,0.00
2022-09-13T00:53:01.227Z,0.00
2022-09-13T00:54:01.190Z,0.00
2022-09-13T00:55:01.156Z,0.00
2022-09-13T00:56:01.113Z,0.00
2022-09-13T00:57:01.090Z,0.00
2022-09-13T00:58:01.040Z,0.00
2022-09-13T00:59:01.005Z,0.00
2022-09-13T01:00:00.965Z,0.00
2022-09-13T01:01:00.971Z,0.00
2022-09-13T01:02:00.926Z,0.00
2022-09-13T01:03:00.858Z,0.00
2022-09-13T01:04:00.817Z,0.00
2022-09-13T01:05:00.784Z,0.00
2022-09-13T01:06:00.745Z,0.00
2022-09-13T01:07:00.713Z,0.00
2022-09-13T01:08:00.681Z,0.00
2022-09-13T01:09:00.633Z,0.00
2022-09-13T01:10:00.596Z,0.00
2022-09-13T01:11:00.561Z,0.00
2022-09-13T01:12:00.527Z,0.00
2022-09-13T01:13:00.485Z,0.00
2022-09-13T01:14:00.458Z,0.00
2022-09-13T01:15:00.412Z,0.00
2022-09-13T01:16:00.451Z,0.00
2022-09-13T01:17:00.341Z,0.00
2022-09-13T01:18:00.418Z,0.00
2022-09-13T01:19:00.264Z,0.00
2022-09-13T01:20:00.232Z,0.00
2022-09-13T01:21:00.191Z,0.00
2022-09-13T01:22:00.151Z,0.00
2022-09-13T01:23:00.116Z,0.00
2022-09-13T01:24:00.092Z,0.00
2022-09-13T01:25:00.042Z,0.00
2022-09-13T01:26:00.003Z,0.00
2022-09-13T01:26:59.969Z,0.00
2022-09-13T01:27:59.930Z,0.00
2022-09-13T01:28:59.893Z,0.00
2022-09-13T01:29:59.865Z,0.00
2022-09-13T01:30:59.819Z,0.00
2022-09-13T01:31:59.831Z,0.00
2022-09-13T01:32:59.746Z,0.00
2022-09-13T01:33:59.706Z,0.00
2022-09-13T01:34:59.671Z,0.00
2022-09-13T01:35:59.647Z,0.00
2022-09-13T01:36:59.598Z,0.00
2022-09-13T01:37:59.558Z,0.00
2022-09-13T01:38:59.522Z,0.00
2022-09-13T01:39:59.546Z,0.00
2022-09-13T01:41:02.930Z,0.00
2022-09-13T01:41:59.409Z,0.00
2022-09-13T01:42:59.374Z,0.00
2022-09-13T01:43:59.336Z,0.00
2022-09-13T01:44:59.298Z,0.00
2022-09-13T01:45:59.289Z,0.00
2022-09-13T01:46:59.225Z,0.00
2022-09-13T01:47:59.186Z,0.00
2022-09-13T01:48:59.152Z,0.00
2022-09-13T01:49:59.111Z,0.00
2022-09-13T01:50:59.079Z,0.00
2022-09-13T01:51:59.050Z,0.00
2022-09-13T01:52:59.000Z,0.00
2022-09-13T01:53:58.963Z,0.00
2022-09-13T01:54:58.929Z,0.00
2022-09-13T01:56:08.378Z,0.00
2022-09-13T01:56:58.851Z,0.00
2022-09-13T01:57:58.824Z,0.00
2022-09-13T01:58:58.778Z,0.00
2022-09-13T01:59:58.740Z,0.00
2022-09-13T02:00:58.736Z,0.00
2022-09-13T02:01:58.695Z,0.00
2022-09-13T02:02:58.630Z,0.00
2022-09-13T02:03:58.602Z,0.00
2022-09-13T02:04:58.553Z,0.00
2022-09-13T02:05:58.516Z,0.00
2022-09-13T02:06:58.484Z,0.00
2022-09-13T02:07:58.441Z,0.00
2022-09-13T02:08:58.411Z,0.00
2022-09-13T02:09:58.379Z,0.00
2022-09-13T02:10:58.332Z,0.00
2022-09-13T02:11:58.292Z,0.00
2022-09-13T02:12:58.261Z,0.00
2022-09-13T02:13:58.217Z,0.00
2022-09-13T02:14:58.183Z,0.00
2022-09-13T02:15:58.157Z,0.00
2022-09-13T02:16:58.107Z,0.00
2022-09-13T02:17:58.069Z,0.00
2022-09-13T02:18:58.032Z,0.00
2022-09-13T02:19:57.992Z,0.00
2022-09-13T02:20:57.969Z,0.00
2022-09-13T02:21:57.922Z,0.00
2022-09-13T02:22:57.884Z,0.00
2022-09-13T02:23:57.948Z,0.00
2022-09-13T02:24:57.808Z,0.00
2022-09-13T02:25:57.784Z,0.00
2022-09-13T02:26:57.733Z,0.00
2022-09-13T02:27:57.696Z,0.00
2022-09-13T02:28:57.658Z,0.00
2022-09-13T02:29:57.620Z,0.00
2022-09-13T02:30:57.591Z,0.00
2022-09-13T02:31:57.604Z,0.00
2022-09-13T02:32:57.509Z,0.00
2022-09-13T02:33:57.484Z,0.00
2022-09-13T02:34:57.442Z,0.00
2022-09-13T02:35:57.396Z,0.00
2022-09-13T02:36:57.360Z,0.00
2022-09-13T02:37:57.323Z,0.00
2022-09-13T02:38:57.288Z,0.00
2022-09-13T02:39:57.321Z,0.00
2022-09-13T02:40:57.211Z,0.00
2022-09-13T02:41:57.175Z,0.00
2022-09-13T02:42:57.137Z,0.00
2022-09-13T02:43:57.099Z,0.00
2022-09-13T02:44:57.063Z,0.00
2022-09-13T02:45:57.080Z,0.00
2022-09-13T02:46:56.988Z,0.00
2022-09-13T02:47:56.952Z,0.00
2022-09-13T02:48:56.915Z,0.00
2022-09-13T02:49:56.875Z,0.00
2022-09-13T02:50:56.841Z,0.00
2022-09-13T02:51:56.814Z,0.00
2022-09-13T02:52:56.768Z,0.00
2022-09-13T02:53:56.730Z,0.00
2022-09-13T02:54:56.690Z,0.00
2022-09-13T02:55:56.651Z,0.00
2022-09-13T02:56:56.622Z,0.00
2022-09-13T02:57:56.591Z,0.00
2022-09-13T02:58:56.542Z,0.00
2022-09-13T02:59:56.502Z,0.00
2022-09-13T03:00:56.496Z,0.00
2022-09-13T03:01:56.467Z,0.00
2022-09-13T03:02:56.395Z,0.00
2022-09-13T03:03:56.363Z,0.00
2022-09-13T03:04:56.320Z,0.00
2022-09-13T03:05:56.280Z,0.00
2022-09-13T03:06:56.243Z,0.00
2022-09-13T03:07:56.204Z,0.00
2022-09-13T03:08:56.178Z,0.00
2022-09-13T03:09:56.129Z,0.00
2022-09-13T03:10:56.097Z,0.00
2022-09-13T03:11:56.053Z,0.00
2022-09-13T03:12:56.019Z,0.00
2022-09-13T03:13:55.984Z,0.00
2022-09-13T03:14:55.964Z,0.00
2022-09-13T03:15:55.908Z,0.00
2022-09-13T03:16:55.938Z,0.00
2022-09-13T03:17:55.831Z,0.00
2022-09-13T03:18:55.796Z,0.00
2022-09-13T03:19:55.772Z,0.00
2022-09-13T03:20:55.721Z,0.00
2022-09-13T03:21:55.687Z,0.00
2022-09-13T03:22:55.646Z,0.00
2022-09-13T03:23:55.612Z,0.00
2022-09-13T03:24:56.336Z,0.00
2022-09-13T03:25:55.548Z,0.00
2022-09-13T03:26:55.496Z,0.00
2022-09-13T03:27:55.461Z,0.00
2022-09-13T03:28:55.425Z,0.00
2022-09-13T03:29:55.385Z,0.00
2022-09-13T03:30:55.360Z,0.00
2022-09-13T03:31:55.349Z,0.00
2022-09-13T03:32:55.274Z,0.00
2022-09-13T03:33:55.238Z,0.00
2022-09-13T03:34:55.200Z,0.00
2022-09-13T03:35:55.172Z,0.00
2022-09-13T03:36:55.127Z,0.00
2022-09-13T03:37:55.087Z,0.00
2022-09-13T03:38:55.055Z,0.00
2022-09-13T03:39:55.032Z,0.00
2022-09-13T03:40:54.974Z,0.00
2022-09-13T03:41:54.954Z,0.00
2022-09-13T03:42:54.902Z,0.00
2022-09-13T03:43:54.861Z,0.00
2022-09-13T03:44:54.825Z,0.00
2022-09-13T03:45:54.840Z,0.00
2022-09-13T03:46:54.752Z,0.00
2022-09-13T03:47:54.938Z,0.00
2022-09-13T03:48:54.676Z,0.00
2022-09-13T03:49:54.638Z,0.00
2022-09-13T03:50:54.603Z,0.00
2022-09-13T03:51:54.560Z,0.00
2022-09-13T03:52:54.523Z,0.00
2022-09-13T03:53:54.502Z,0.00
2022-09-13T03:54:54.451Z,0.00
2022-09-13T03:55:54.412Z,0.00
2022-09-13T03:56:54.374Z,0.00
2022-09-13T03:57:54.336Z,0.00
2022-09-13T03:58:54.298Z,0.00
2022-09-13T03:59:54.273Z,0.00
2022-09-13T04:00:54.264Z,0.00
2022-09-13T04:01:54.271Z,0.00
2022-09-13T04:02:54.147Z,0.00
2022-09-13T04:03:56.835Z,0.00
2022-09-13T04:04:54.076Z,0.00
2022-09-13T04:05:54.047Z,0.00
2022-09-13T04:06:53.997Z,0.00
2022-09-13T04:07:53.969Z,0.00
2022-09-13T04:08:53.920Z,0.00
2022-09-13T04:09:53.898Z,0.00
2022-09-13T04:10:53.847Z,0.00
2022-09-13T04:11:53.808Z,0.00
2022-09-13T04:12:53.770Z,0.00
2022-09-13T04:13:53.735Z,0.00
2022-09-13T04:14:53.710Z,0.00
2022-09-13T04:15:53.656Z,0.00
2022-09-13T04:16:53.620Z,0.00
2022-09-13T04:17:53.592Z,0.00
2022-09-13T04:18:53.546Z,0.00
2022-09-13T04:19:53.507Z,0.00
2022-09-13T04:20:53.471Z,0.00
2022-09-13T04:21:53.431Z,0.00
2022-09-13T04:22:53.889Z,0.00
2022-09-13T04:23:53.373Z,0.00
2022-09-13T04:24:53.320Z,0.00
2022-09-13T04:25:53.282Z,0.00
2022-09-13T04:26:53.245Z,0.00
2022-09-13T04:27:53.204Z,0.00
2022-09-13T04:28:53.169Z,0.00
2022-09-13T04:29:53.210Z,0.00
2022-09-13T04:30:53.092Z,0.00
2022-09-13T04:31:53.101Z,0.00
2022-09-13T04:32:53.022Z,0.00
2022-09-13T04:33:52.985Z,0.00
2022-09-13T04:34:52.943Z,0.00
2022-09-13T04:35:52.921Z,0.00
2022-09-13T04:36:52.870Z,0.00
2022-09-13T04:37:52.832Z,0.00
2022-09-13T04:38:52.797Z,0.00
2022-09-13T04:39:52.773Z,4.00
2022-09-13T04:40:52.719Z,4.00
2022-09-13T04:41:52.691Z,0.00
2022-09-13T04:42:52.643Z,4.00
2022-09-13T04:43:52.629Z,8.00
2022-09-13T04:44:52.570Z,8.00
2022-09-13T04:45:52.595Z,8.00
2022-09-13T04:46:52.498Z,12.00
2022-09-13T04:47:52.475Z,12.00
2022-09-13T04:48:52.417Z,16.00
2022-09-13T04:49:52.381Z,20.00
2022-09-13T04:50:52.342Z,20.00
2022-09-13T04:51:52.304Z,28.00
2022-09-13T04:52:52.265Z,32.00
2022-09-13T04:53:52.243Z,32.00
2022-09-13T04:54:52.196Z,36.00
2022-09-13T04:55:52.155Z,40.00
2022-09-13T04:56:52.118Z,36.00
2022-09-13T04:57:52.079Z,36.00
2022-09-13T04:58:52.056Z,40.00
2022-09-13T04:59:52.004Z,40.00
2022-09-13T05:00:52.010Z,40.00
2022-09-13T05:01:52.040Z,40.00
2022-09-13T05:02:51.889Z,44.00
2022-09-13T05:03:51.855Z,48.00
2022-09-13T05:04:51.829Z,52.00
2022-09-13T05:05:51.777Z,60.00
2022-09-13T05:06:51.739Z,68.00
2022-09-13T05:07:51.702Z,80.00
2022-09-13T05:08:51.664Z,96.00
2022-09-13T05:09:51.626Z,108.00
2022-09-13T05:10:51.603Z,128.00
2022-09-13T05:11:51.552Z,144.00
2022-09-13T05:12:51.512Z,164.00
2022-09-13T05:13:51.474Z,196.00
2022-09-13T05:14:51.437Z,228.00
2022-09-13T05:15:51.439Z,272.00
2022-09-13T05:16:51.372Z,316.00
2022-09-13T05:17:51.324Z,364.00
2022-09-13T05:18:51.415Z,412.00
2022-09-13T05:19:51.249Z,460.00
2022-09-13T05:20:51.209Z,512.00
2022-09-13T05:21:51.173Z,568.00
2022-09-13T05:22:51.147Z,636.00
2022-09-13T05:23:51.097Z,700.00
2022-09-13T05:24:51.059Z,760.00
2022-09-13T05:25:51.030Z,812.00
2022-09-13T05:26:50.985Z,860.00
2022-09-13T05:27:50.944Z,908.00
2022-09-13T05:28:51.024Z,964.00
2022-09-13T05:29:50.870Z,1020.00
2022-09-13T05:30:50.910Z,1072.00
2022-09-13T05:31:50.794Z,1112.00
2022-09-13T05:32:50.757Z,1128.00
2022-09-13T05:33:50.719Z,1140.00
2022-09-13T05:34:50.699Z,1152.00
2022-09-13T05:35:50.645Z,1176.00
2022-09-13T05:36:54.083Z,1208.00
2022-09-13T05:37:50.569Z,1260.00
2022-09-13T05:39:01.640Z,1344.00
2022-09-13T05:40:10.262Z,1452.00
2022-09-13T05:40:50.518Z,1552.00
2022-09-13T05:41:50.414Z,1640.00
2022-09-13T05:42:50.379Z,1740.00
2022-09-13T05:43:50.343Z,1848.00
2022-09-13T05:44:50.302Z,1944.00
2022-09-13T05:45:50.305Z,2028.00
2022-09-13T05:46:50.239Z,2080.00
2022-09-13T05:47:50.191Z,2116.00
2022-09-13T05:48:50.317Z,2124.00
2022-09-13T05:50:09.232Z,2140.00
2022-09-13T05:50:58.720Z,2164.00
2022-09-13T05:51:50.041Z,2180.00
2022-09-13T05:52:50.015Z,2168.00
2022-09-13T05:53:49.964Z,2140.00
2022-09-13T05:54:49.929Z,2108.00
2022-09-13T05:55:49.887Z,2104.00
2022-09-13T05:56:49.860Z,2136.00
2022-09-13T05:57:49.815Z,2156.00
2022-09-13T05:58:49.881Z,2204.00
2022-09-13T05:59:49.739Z,2252.00
2022-09-13T06:00:49.702Z,2320.00
2022-09-13T06:01:49.681Z,2392.00
2022-09-13T06:02:49.708Z,2460.00
2022-09-13T06:03:49.589Z,2556.00
2022-09-13T06:04:49.561Z,2576.00
2022-09-13T06:05:49.514Z,2572.00
2022-09-13T06:06:49.475Z,2620.00
2022-09-13T06:07:49.439Z,2684.00
2022-09-13T06:08:49.516Z,2760.00
2022-09-13T06:09:49.365Z,2900.00
2022-09-13T06:10:49.325Z,3108.00
2022-09-13T06:11:49.286Z,3352.00
2022-09-13T06:12:49.253Z,3920.00
2022-09-13T06:13:49.211Z,4076.00
2022-09-13T06:14:49.188Z,3420.00
2022-09-13T06:15:49.188Z,3448.00
2022-09-13T06:16:49.099Z,3592.00
2022-09-13T06:17:49.063Z,3740.00
2022-09-13T06:18:49.199Z,3824.00
2022-09-13T06:19:48.987Z,3940.00
2022-09-13T06:20:48.960Z,4040.00
2022-09-13T06:21:48.983Z,4128.00
2022-09-13T06:22:48.875Z,4220.00
2022-09-13T06:23:48.838Z,4316.00
2022-09-13T06:24:48.800Z,4372.00
2022-09-13T06:25:48.765Z,4356.00
2022-09-13T06:26:48.739Z,4308.00
2022-09-13T06:27:50.138Z,4276.00
2022-09-13T06:28:48.881Z,4276.00
2022-09-13T06:29:48.616Z,4316.00
2022-09-13T06:30:48.577Z,4420.00
2022-09-13T06:31:48.540Z,4588.00
2022-09-13T06:32:48.518Z,4816.00
2022-09-13T06:33:48.468Z,5064.00
2022-09-13T06:34:48.431Z,5336.00
2022-09-13T06:35:48.393Z,5568.00
2022-09-13T06:36:48.359Z,5780.00
2022-09-13T06:37:48.331Z,6004.00
2022-09-13T06:38:48.391Z,6252.00
2022-09-13T06:39:48.287Z,6556.00
2022-09-13T06:40:48.209Z,6932.00
2022-09-13T06:41:48.173Z,7344.00
2022-09-13T06:42:48.135Z,7696.00
2022-09-13T06:43:48.103Z,7956.00
2022-09-13T06:44:48.070Z,7932.00
2022-09-13T06:45:48.093Z,7640.00
2022-09-13T06:46:48.019Z,7232.00
2022-09-13T06:47:47.960Z,6848.00
2022-09-13T06:48:47.995Z,6580.00
2022-09-13T06:49:47.889Z,6380.00
2022-09-13T06:50:47.839Z,6184.00
2022-09-13T06:51:47.805Z,6108.00
2022-09-13T06:52:47.766Z,6344.00
2022-09-13T06:53:47.734Z,6256.00
2022-09-13T06:54:47.695Z,6132.00
2022-09-13T06:55:47.671Z,5632.00
2022-09-13T06:56:47.621Z,5508.00
2022-09-13T06:57:47.587Z,5432.00
2022-09-13T06:58:47.550Z,5344.00
2022-09-13T06:59:47.516Z,5248.00
2022-09-13T07:00:47.657Z,5252.00
2022-09-13T07:01:47.572Z,5436.00
2022-09-13T07:02:47.403Z,5576.00
2022-09-13T07:03:47.368Z,5604.00
2022-09-13T07:04:47.347Z,5760.00
2022-09-13T07:05:47.299Z,6128.00
2022-09-13T07:06:47.272Z,6564.00
2022-09-13T07:07:47.225Z,7000.00
2022-09-13T07:08:47.184Z,7224.00
2022-09-13T07:09:47.233Z,7276.00
2022-09-13T07:10:47.116Z,7160.00
2022-09-13T07:11:47.083Z,7048.00
2022-09-13T07:12:47.052Z,7072.00
2022-09-13T07:13:47.002Z,7160.00
2022-09-13T07:14:46.964Z,7336.00
2022-09-13T07:15:46.994Z,7476.00
2022-09-13T07:16:46.910Z,7604.00
2022-09-13T07:17:46.861Z,7736.00
2022-09-13T07:18:46.821Z,7848.00
2022-09-13T07:19:46.787Z,7924.00
2022-09-13T07:20:46.750Z,7976.00
2022-09-13T07:21:46.711Z,8012.00
2022-09-13T07:22:46.685Z,8056.00
2022-09-13T07:23:46.639Z,8028.00
2022-09-13T07:24:46.615Z,7908.00
2022-09-13T07:25:46.566Z,7884.00
2022-09-13T07:26:46.533Z,7924.00
2022-09-13T07:27:46.496Z,8116.00
2022-09-13T07:28:46.485Z,8412.00
2022-09-13T07:29:46.423Z,8616.00
2022-09-13T07:30:46.448Z,8704.00
2022-09-13T07:31:46.349Z,8620.00
2022-09-13T07:32:46.314Z,8468.00
2022-09-13T07:33:46.279Z,8628.00
2022-09-13T07:34:46.242Z,8772.00
2022-09-13T07:35:46.206Z,8820.00
2022-09-13T07:36:46.181Z,8816.00
2022-09-13T07:37:46.134Z,9124.00
2022-09-13T07:38:46.203Z,9772.00
2022-09-13T07:39:46.108Z,10132.00
2022-09-13T07:40:46.032Z,10452.00
2022-09-13T07:41:45.991Z,10860.00
2022-09-13T07:42:45.968Z,11108.00
2022-09-13T07:43:45.918Z,12452.00
2022-09-13T07:44:45.882Z,12260.00
2022-09-13T07:45:45.846Z,12472.00
2022-09-13T07:46:45.822Z,12360.00
2022-09-13T07:47:45.774Z,12280.00
2022-09-13T07:48:45.814Z,11148.00
2022-09-13T07:49:45.706Z,11124.00
2022-09-13T07:50:45.668Z,11364.00
2022-09-13T07:51:45.638Z,12080.00
2022-09-13T07:52:45.597Z,11072.00
2022-09-13T07:53:45.563Z,10880.00
2022-09-13T07:54:45.549Z,10784.00
2022-09-13T07:55:45.492Z,10700.00
2022-09-13T07:56:53.540Z,10568.00
2022-09-13T07:57:45.422Z,10488.00
2022-09-13T07:58:45.385Z,10592.00
2022-09-13T07:59:45.351Z,10748.00
2022-09-13T08:00:45.326Z,10812.00
2022-09-13T08:01:45.376Z,10840.00
2022-09-13T08:02:45.288Z,10896.00
2022-09-13T08:03:45.276Z,10920.00
2022-09-13T08:04:45.179Z,10908.00
2022-09-13T08:05:45.141Z,11004.00
2022-09-13T08:06:45.117Z,11376.00
2022-09-13T08:07:45.074Z,12016.00
2022-09-13T08:08:45.034Z,12756.00
2022-09-13T08:09:45.000Z,13324.00
2022-09-13T08:10:49.278Z,14564.00
2022-09-13T08:11:44.933Z,14056.00
2022-09-13T08:12:44.907Z,15836.00
2022-09-13T08:13:44.860Z,14896.00
2022-09-13T08:14:44.829Z,17280.00
2022-09-13T08:15:44.868Z,15796.00
2022-09-13T08:16:44.756Z,16768.00
2022-09-13T08:17:44.721Z,13892.00
2022-09-13T08:18:44.700Z,13636.00
2022-09-13T08:19:44.651Z,16928.00
2022-09-13T08:20:44.621Z,15776.00
2022-09-13T08:21:44.586Z,15668.00
2022-09-13T08:22:44.554Z,16296.00
2022-09-13T08:23:44.519Z,16364.00
2022-09-13T08:24:44.492Z,17792.00
2022-09-13T08:25:44.467Z,19040.00
2022-09-13T08:26:44.416Z,17600.00
2022-09-13T08:27:44.381Z,19584.00
2022-09-13T08:28:44.352Z,19776.00
2022-09-13T08:29:44.312Z,17728.00
2022-09-13T08:30:44.322Z,16800.00
2022-09-13T08:31:44.251Z,16212.00
2022-09-13T08:32:44.217Z,18656.00
2022-09-13T08:33:46.481Z,18656.00
2022-09-13T08:34:44.148Z,18464.00
2022-09-13T08:35:44.120Z,19008.00
2022-09-13T08:36:44.103Z,18816.00
2022-09-13T08:37:44.050Z,19200.00
2022-09-13T08:38:44.018Z,19008.00
2022-09-13T08:39:44.028Z,19104.00
2022-09-13T08:40:43.978Z,18624.00
2022-09-13T08:41:43.923Z,18592.00
2022-09-13T08:42:43.891Z,18528.00
2022-09-13T08:43:43.863Z,18336.00
2022-09-13T08:44:43.890Z,18464.00
2022-09-13T08:45:43.792Z,19232.00
2022-09-13T08:46:43.757Z,18816.00
2022-09-13T08:47:43.720Z,18592.00
2022-09-13T08:48:43.700Z,19296.00
2022-09-13T08:49:43.673Z,19616.00
2022-09-13T08:50:43.639Z,18400.00
2022-09-13T08:51:43.604Z,17088.00
2022-09-13T08:52:43.560Z,15896.00
2022-09-13T08:53:43.530Z,20352.00
2022-09-13T08:54:43.509Z,20096.00
2022-09-13T08:55:43.462Z,20256.00
2022-09-13T08:56:43.436Z,21152.00
2022-09-13T08:57:43.412Z,21728.00
2022-09-13T08:58:43.367Z,21984.00
2022-09-13T08:59:43.335Z,20832.00
2022-09-13T09:00:43.317Z,21024.00
2022-09-13T09:01:43.336Z,21504.00
2022-09-13T09:02:43.262Z,19392.00
2022-09-13T09:03:43.263Z,18240.00
2022-09-13T09:04:43.178Z,19968.00
2022-09-13T09:05:43.175Z,20960.00
2022-09-13T09:06:43.114Z,21184.00
2022-09-13T09:07:43.081Z,22208.00
2022-09-13T09:08:43.049Z,22336.00
2022-09-13T09:09:43.019Z,21888.00
2022-09-13T09:10:42.994Z,22464.00
2022-09-13T09:11:42.974Z,21824.00
2022-09-13T09:12:42.925Z,21920.00
2022-09-13T09:13:42.953Z,20992.00
2022-09-13T09:14:42.863Z,20032.00
2022-09-13T09:15:42.854Z,20256.00
2022-09-13T09:16:42.815Z,19968.00
2022-09-13T09:17:42.773Z,19264.00
2022-09-13T09:18:42.742Z,18432.00
2022-09-13T09:19:42.711Z,18272.00
2022-09-13T09:20:42.680Z,17952.00
2022-09-13T09:21:42.687Z,17920.00
2022-09-13T09:22:42.617Z,19392.00
2022-09-13T09:23:42.679Z,20192.00
2022-09-13T09:24:42.555Z,21184.00
2022-09-13T09:25:42.525Z,20640.00
2022-09-13T09:26:42.495Z,20736.00
2022-09-13T09:27:42.475Z,19872.00
2022-09-13T09:28:42.433Z,19968.00
2022-09-13T09:29:42.402Z,19712.00
2022-09-13T09:30:42.405Z,18880.00
2022-09-13T09:31:42.343Z,19392.00
2022-09-13T09:32:42.329Z,20064.00
2022-09-13T09:33:42.349Z,19552.00
2022-09-13T09:34:42.250Z,19776.00
2022-09-13T09:35:42.218Z,21664.00
2022-09-13T09:36:42.188Z,21376.00
2022-09-13T09:37:42.161Z,18944.00
2022-09-13T09:38:42.134Z,19200.00
2022-09-13T09:39:42.109Z,19360.00
2022-09-13T09:40:42.064Z,19520.00
2022-09-13T09:41:42.031Z,18592.00
2022-09-13T09:42:42.002Z,19488.00
2022-09-13T09:43:42.031Z,21056.00
2022-09-13T09:44:41.942Z,21312.00
2022-09-13T09:45:41.985Z,22048.00
2022-09-13T09:46:41.881Z,22432.00
2022-09-13T09:47:41.850Z,22112.00
2022-09-13T09:48:41.885Z,22240.00
2022-09-13T09:49:41.795Z,21600.00
2022-09-13T09:50:41.757Z,20288.00
2022-09-13T09:51:41.728Z,20832.00
2022-09-13T09:52:41.697Z,19456.00
2022-09-13T09:53:41.677Z,20608.00
2022-09-13T09:54:41.640Z,19584.00
2022-09-13T09:55:41.603Z,19552.00
2022-09-13T09:56:41.575Z,19360.00
2022-09-13T09:57:41.559Z,18368.00
2022-09-13T09:58:41.534Z,15152.00
2022-09-13T09:59:41.487Z,14600.00
2022-09-13T10:00:41.452Z,15180.00
2022-09-13T10:01:41.438Z,15192.00
2022-09-13T10:02:41.415Z,16076.00
2022-09-13T10:03:41.498Z,18304.00
2022-09-13T10:04:41.344Z,19328.00
2022-09-13T10:05:41.302Z,20512.00
2022-09-13T10:06:41.272Z,22144.00
2022-09-13T10:07:41.242Z,21376.00
2022-09-13T10:08:41.211Z,23648.00
2022-09-13T10:09:41.211Z,24192.00
2022-09-13T10:10:41.153Z,25120.00
2022-09-13T10:11:41.118Z,24544.00
2022-09-13T10:12:41.090Z,26336.00
2022-09-13T10:13:41.091Z,25344.00
2022-09-13T10:14:41.042Z,26016.00
2022-09-13T10:15:41.016Z,24832.00
2022-09-13T10:16:41.009Z,23872.00
2022-09-13T10:17:40.946Z,25504.00
2022-09-13T10:18:44.369Z,25632.00
2022-09-13T10:19:40.884Z,24928.00
2022-09-13T10:20:40.848Z,24224.00
2022-09-13T10:21:40.823Z,23776.00
2022-09-13T10:22:40.802Z,23328.00
2022-09-13T10:23:40.759Z,23328.00
2022-09-13T10:24:40.731Z,23296.00
2022-09-13T10:25:43.675Z,23040.00
2022-09-13T10:26:40.680Z,22784.00
2022-09-13T10:27:40.642Z,22368.00
2022-09-13T10:28:40.631Z,22208.00
2022-09-13T10:29:40.585Z,21760.00
2022-09-13T10:30:40.616Z,21824.00
2022-09-13T10:31:40.531Z,20800.00
2022-09-13T10:32:40.499Z,21408.00
2022-09-13T10:33:40.469Z,21536.00
2022-09-13T10:34:40.457Z,21344.00
2022-09-13T10:35:40.412Z,21216.00
2022-09-13T10:36:52.113Z,21248.00
2022-09-13T10:37:40.355Z,21376.00
2022-09-13T10:38:48.605Z,21184.00
2022-09-13T10:39:40.336Z,21696.00
2022-09-13T10:40:40.284Z,21472.00
2022-09-13T10:41:40.242Z,21888.00
2022-09-13T10:42:40.212Z,21600.00
2022-09-13T10:43:40.183Z,21664.00
2022-09-13T10:44:40.160Z,21408.00
2022-09-13T10:45:40.174Z,21184.00
2022-09-13T10:46:40.099Z,20896.00
2022-09-13T10:47:40.070Z,20544.00
2022-09-13T10:48:40.046Z,20352.00
2022-09-13T10:49:40.048Z,20000.00
2022-09-13T10:50:39.987Z,19840.00
2022-09-13T10:51:39.967Z,19744.00
2022-09-13T10:52:39.934Z,19488.00
2022-09-13T10:53:39.906Z,19456.00
2022-09-13T10:54:39.876Z,19104.00
2022-09-13T10:55:39.843Z,18752.00
2022-09-13T10:56:39.817Z,14764.00
2022-09-13T10:57:39.802Z,17056.00
2022-09-13T10:58:39.761Z,13720.00
2022-09-13T10:59:39.729Z,11228.00
2022-09-13T11:00:39.707Z,12272.00
2022-09-13T11:01:40.556Z,15796.00
2022-09-13T11:02:39.647Z,13148.00
2022-09-13T11:03:39.626Z,14048.00
2022-09-13T11:04:39.592Z,12176.00
2022-09-13T11:05:39.565Z,13032.00
2022-09-13T11:06:39.534Z,13772.00
2022-09-13T11:07:39.504Z,13804.00
2022-09-13T11:08:39.492Z,14804.00
2022-09-13T11:09:39.451Z,15300.00
2022-09-13T11:10:39.427Z,15940.00
2022-09-13T11:11:39.393Z,13272.00
2022-09-13T11:12:39.375Z,13524.00
2022-09-13T11:13:41.900Z,13500.00
2022-09-13T11:14:39.319Z,12148.00
2022-09-13T11:15:39.275Z,12148.00
2022-09-13T11:16:39.280Z,11096.00
2022-09-13T11:17:39.218Z,11232.00
2022-09-13T11:18:39.194Z,11000.00
2022-09-13T11:19:39.173Z,11892.00
2022-09-13T11:20:39.140Z,11572.00
2022-09-13T11:21:39.108Z,10572.00
2022-09-13T11:22:39.070Z,12412.00
2022-09-13T11:23:39.042Z,12708.00
2022-09-13T11:24:39.038Z,12608.00
2022-09-13T11:25:38.990Z,13216.00
2022-09-13T11:26:38.950Z,14540.00
2022-09-13T11:27:38.922Z,15444.00
2022-09-13T11:28:38.891Z,16048.00
2022-09-13T11:29:38.861Z,17248.00
2022-09-13T11:30:38.840Z,17600.00
2022-09-13T11:31:38.864Z,18656.00
2022-09-13T11:32:38.771Z,19200.00
2022-09-13T11:33:38.738Z,19296.00
2022-09-13T11:34:38.708Z,19936.00
2022-09-13T11:35:38.684Z,19392.00
2022-09-13T11:36:38.659Z,19200.00
2022-09-13T11:37:38.620Z,18880.00
2022-09-13T11:38:38.590Z,19328.00
2022-09-13T11:39:38.558Z,19296.00
2022-09-13T11:40:38.525Z,19104.00
2022-09-13T11:41:38.508Z,18880.00
2022-09-13T11:42:38.477Z,18592.00
2022-09-13T11:43:38.553Z,17984.00
2022-09-13T11:44:38.407Z,17056.00
2022-09-13T11:45:38.406Z,17024.00
2022-09-13T11:46:38.345Z,16640.00
2022-09-13T11:47:38.318Z,17216.00
2022-09-13T11:48:38.297Z,16960.00
2022-09-13T11:49:38.257Z,17184.00
2022-09-13T11:50:38.230Z,17056.00
2022-09-13T11:51:38.196Z,16832.00
2022-09-13T11:52:38.169Z,17376.00
2022-09-13T11:53:38.138Z,17792.00
2022-09-13T11:54:38.124Z,17792.00
2022-09-13T11:55:38.079Z,17888.00
2022-09-13T11:56:38.114Z,18080.00
2022-09-13T11:57:38.020Z,18848.00
2022-09-13T11:58:37.988Z,19072.00
2022-09-13T11:59:37.960Z,18112.00
2022-09-13T12:00:37.940Z,18656.00
2022-09-13T12:01:37.900Z,18880.00
2022-09-13T12:02:37.942Z,18720.00
2022-09-13T12:03:37.839Z,18688.00
2022-09-13T12:04:37.812Z,19392.00
2022-09-13T12:05:37.799Z,15480.00
2022-09-13T12:06:37.757Z,16024.00
2022-09-13T12:07:37.724Z,14200.00
2022-09-13T12:08:37.692Z,14564.00
2022-09-13T12:09:37.662Z,14324.00
2022-09-13T12:10:37.635Z,14768.00
2022-09-13T12:11:37.616Z,17728.00
2022-09-13T12:12:37.590Z,14640.00
2022-09-13T12:13:37.595Z,13392.00
2022-09-13T12:14:37.520Z,15636.00
2022-09-13T12:15:37.484Z,17856.00
2022-09-13T12:16:37.471Z,17824.00
2022-09-13T12:17:37.461Z,19104.00
2022-09-13T12:18:37.393Z,17536.00
2022-09-13T12:19:37.365Z,18944.00
2022-09-13T12:20:37.332Z,17536.00
2022-09-13T12:21:37.302Z,14808.00
2022-09-13T12:22:37.290Z,15200.00
2022-09-13T12:23:37.245Z,18592.00
2022-09-13T12:24:37.213Z,18784.00